Time;durP1;ratioP1;P1;durP2;ratioP2;P2;SDS_P1;SDS_P2;PMS_P1;PMS_P2;Temp;Humidity;BMP_temperature;BMP_pressure;BME280_temperature;BME280_humidity;BME280_pressure;Samples;Min_cycle;Max_cycle;Signal;HPM_P1;HPM_P2
2024/04/19 00:01:19;;;;;;;5.40;3.47;;;;;;;7.68;68.31;99933.50;5522345;25;20315;-60
2024/04/19 00:03:50;;;;;;;6.60;3.70;;;;;;;7.76;68.23;99933.94;5522399;25;20005;-57
2024/04/19 00:06:21;;;;;;;5.63;3.53;;;;;;;7.84;68.60;99931.75;5521473;25;20017;-57
2024/04/19 00:08:49;;;;;;;7.47;3.80;;;;;;;7.85;68.83;99933.47;5521929;25;20026;-58
2024/04/19 00:11:19;;;;;;;6.03;3.40;;;;;;;7.72;69.17;99935.03;5522905;25;19993;-59
2024/04/19 00:13:47;;;;;;;6.10;3.72;;;;;;;7.72;69.35;99940.34;5522078;25;19997;-58
2024/04/19 00:16:18;;;;;;;6.13;3.78;;;;;;;7.71;69.15;99935.97;5522120;25;20079;-58
2024/04/19 00:18:46;;;;;;;5.80;3.88;;;;;;;7.55;69.27;99938.63;5521951;25;19998;-58
2024/04/19 00:21:19;;;;;;;6.60;3.90;;;;;;;7.45;70.32;99935.59;5521848;25;19997;-57
2024/04/19 00:23:47;;;;;;;6.22;3.67;;;;;;;7.57;70.41;99943.84;5521850;25;19993;-56
2024/04/19 00:26:22;;;;;;;7.57;4.13;;;;;;;7.49;70.25;99940.72;5521716;25;20035;-58
2024/04/19 00:28:49;;;;;;;6.78;4.05;;;;;;;7.54;70.86;99942.22;5521714;25;19997;-59
2024/04/19 00:31:19;;;;;;;7.95;3.85;;;;;;;7.60;70.54;99935.69;5521395;25;20288;-57
2024/04/19 00:33:47;;;;;;;5.97;3.75;;;;;;;7.43;71.06;99937.47;5521416;25;20066;-57
2024/04/19 00:36:20;;;;;;;7.60;3.90;;;;;;;7.33;71.02;99946.81;5521535;25;20070;-58
2024/04/19 00:38:50;;;;;;;6.53;3.83;;;;;;;7.30;71.53;99949.63;5521772;25;20550;-54
2024/04/19 00:41:21;;;;;;;6.43;4.00;;;;;;;7.42;71.18;99943.69;5521323;25;20050;-58
2024/04/19 00:43:49;;;;;;;9.00;4.20;;;;;;;7.22;71.96;99938.56;5521732;25;20004;-57
2024/04/19 00:46:19;;;;;;;6.65;4.05;;;;;;;7.36;71.77;99949.34;5521019;25;20077;-57
2024/04/19 00:48:47;;;;;;;5.78;3.78;;;;;;;7.25;71.28;99949.03;5521505;25;20009;-56
2024/04/19 00:51:21;;;;;;;6.80;3.85;;;;;;;7.29;71.49;99953.22;5521224;25;20407;-58
2024/04/19 00:53:49;;;;;;;5.85;3.45;;;;;;;7.18;72.01;99963.53;5521453;25;20017;-59
2024/04/19 00:56:20;;;;;;;6.15;3.67;;;;;;;7.07;72.72;99971.19;5521165;25;20008;-57
2024/04/19 00:58:48;;;;;;;6.30;3.65;;;;;;;7.04;73.08;99973.97;5521070;25;20316;-57
2024/04/19 01:01:19;;;;;;;8.32;4.45;;;;;;;6.91;73.49;99972.88;5521142;25;20012;-57
2024/04/19 01:03:47;;;;;;;6.57;3.88;;;;;;;6.68;74.60;99971.34;5521137;25;19993;-59
2024/04/19 01:06:17;;;;;;;7.18;3.95;;;;;;;6.80;74.19;99976.91;5521135;25;20013;-57
2024/04/19 01:08:48;;;;;;;8.10;3.85;;;;;;;7.09;73.48;99982.56;5520493;25;19994;-57
2024/04/19 01:11:19;;;;;;;6.95;4.10;;;;;;;6.76;74.01;99974.50;5520663;25;20005;-56
2024/04/19 01:13:47;;;;;;;8.07;4.25;;;;;;;6.83;75.01;99975.88;5520864;25;20089;-58
2024/04/19 01:16:18;;;;;;;5.72;3.90;;;;;;;6.92;74.45;99980.75;5520612;25;20636;-57
2024/04/19 01:18:46;;;;;;;6.63;4.10;;;;;;;6.90;74.33;99982.63;5522379;25;20343;-58
2024/04/19 01:21:17;;;;;;;6.68;4.00;;;;;;;6.93;74.13;99989.56;5524295;25;20005;-58
2024/04/19 01:23:50;;;;;;;6.82;4.07;;;;;;;6.71;74.43;99976.50;5524513;25;20009;-55
2024/04/19 01:26:24;;;;;;;9.48;3.83;;;;;;;6.76;75.20;99983.31;5524489;25;20069;-55
2024/04/19 01:28:51;;;;;;;7.90;3.70;;;;;;;6.59;75.41;99993.84;5524722;25;20399;-56
2024/04/19 01:31:21;;;;;;;6.93;4.18;;;;;;;6.43;76.63;99993.72;5524636;25;20390;-57
2024/04/19 01:33:49;;;;;;;7.28;4.18;;;;;;;6.24;77.41;99996.38;5524513;25;20042;-58
2024/04/19 01:36:20;;;;;;;6.20;4.50;;;;;;;6.20;78.25;99991.28;5524493;25;19997;-56
2024/04/19 01:38:48;;;;;;;5.90;3.92;;;;;;;6.38;77.54;100005.47;5524368;25;20005;-57
2024/04/19 01:41:18;;;;;;;6.90;4.40;;;;;;;6.02;79.26;99996.50;5524410;25;20005;-58
2024/04/19 01:43:52;;;;;;;6.85;4.35;;;;;;;6.14;79.25;100003.00;5524385;25;20002;-57
2024/04/19 01:46:20;;;;;;;7.97;4.63;;;;;;;5.95;80.26;100002.13;5524677;25;20455;-57
2024/04/19 01:48:50;;;;;;;7.55;4.20;;;;;;;6.12;79.65;100010.19;5524401;25;20533;-57
2024/04/19 01:51:18;;;;;;;7.38;4.15;;;;;;;6.37;78.37;100003.72;5524379;25;20067;-57
2024/04/19 01:53:48;;;;;;;6.45;4.25;;;;;;;6.48;78.24;100006.75;5524743;25;19993;-58
2024/04/19 01:56:19;;;;;;;7.43;4.07;;;;;;;6.12;78.76;100006.66;5524053;25;20407;-58
2024/04/19 01:58:49;;;;;;;6.80;4.00;;;;;;;6.29;78.58;100004.97;5524146;25;20025;-57
2024/04/19 02:01:20;;;;;;;7.20;4.57;;;;;;;6.44;77.68;100006.03;5524258;25;20156;-60
2024/04/19 02:03:48;;;;;;;6.75;4.35;;;;;;;6.06;79.19;99996.34;5523798;25;19997;-57
2024/04/19 02:06:18;;;;;;;7.32;4.47;;;;;;;6.02;80.22;100003.59;5523972;25;20005;-58
2024/04/19 02:08:46;;;;;;;6.35;4.32;;;;;;;6.06;79.25;99994.56;5523658;25;19997;-58
2024/04/19 02:11:16;;;;;;;7.20;4.18;;;;;;;6.04;79.61;100001.72;5523926;25;19998;-55
2024/04/19 02:13:45;;;;;;;7.28;4.38;;;;;;;6.13;79.32;99995.16;5523789;25;20012;-56
2024/04/19 02:16:18;;;;;;;6.18;3.90;;;;;;;5.99;79.05;99998.44;5524104;25;19993;-58
2024/04/19 02:18:46;;;;;;;6.35;4.10;;;;;;;5.95;79.76;100007.44;5523491;25;20002;-59
2024/04/19 02:21:16;;;;;;;8.02;4.25;;;;;;;6.05;79.94;100002.56;5523721;25;20328;-59
2024/04/19 02:23:44;;;;;;;7.03;4.60;;;;;;;5.98;78.93;100013.47;5523766;25;20460;-55
2024/04/19 02:26:15;;;;;;;7.13;4.30;;;;;;;5.94;79.90;100005.72;5523649;25;20455;-56
2024/04/19 02:31:34;;;;;;;6.50;4.25;;;;;;;6.26;78.65;100007.75;5523467;26;19997;-57
2024/04/19 02:34:04;;;;;;;;;;;;;;;6.24;78.46;100009.59;5524850;25;20003;-59
2024/04/19 02:36:37;;;;;;;7.82;4.38;;;;;;;6.32;77.26;100002.16;5524512;25;19939;-62
2024/04/19 02:39:08;;;;;;;8.10;4.35;;;;;;;6.35;77.27;100005.59;5523855;25;20010;-55
2024/04/19 02:41:38;;;;;;;7.22;4.20;;;;;;;6.45;76.76;100007.75;5523657;25;20097;-57
2024/04/19 02:44:08;;;;;;;6.75;4.30;;;;;;;6.30;77.31;100001.38;5523608;25;20026;-60
2024/04/19 02:46:42;;;;;;;7.07;4.30;;;;;;;6.39;76.77;100001.91;5523323;25;20005;-57
2024/04/19 02:49:13;;;;;;;7.72;4.68;;;;;;;6.34;76.73;100002.09;5523293;25;19997;-57
2024/04/19 02:51:45;;;;;;;6.22;3.95;;;;;;;6.23;77.05;100005.25;5523361;25;20316;-57
2024/04/19 02:54:15;;;;;;;8.60;4.30;;;;;;;5.99;78.30;100006.38;5523187;25;19997;-57
2024/04/19 02:56:45;;;;;;;9.73;4.75;;;;;;;6.06;78.45;100010.44;5522809;25;20335;-58
2024/04/19 02:59:16;;;;;;;7.82;4.43;;;;;;;6.22;78.27;100006.19;5522980;25;20008;-55
2024/04/19 03:01:50;;;;;;;7.95;4.47;;;;;;;6.26;77.25;100007.75;5523042;25;19997;-57
2024/04/19 03:04:20;;;;;;;7.72;5.00;;;;;;;6.32;77.83;100015.41;5523162;25;20001;-57
2024/04/19 03:06:51;;;;;;;7.40;4.13;;;;;;;6.07;78.43;100004.22;5523106;25;20000;-57
2024/04/19 03:09:21;;;;;;;7.25;3.88;;;;;;;6.27;77.61;100004.19;5523208;25;20009;-57
2024/04/19 03:11:52;;;;;;;7.30;4.68;;;;;;;6.30;76.76;100004.03;5523204;25;20005;-57
2024/04/19 03:14:26;;;;;;;7.90;4.57;;;;;;;6.27;76.94;100008.59;5523150;25;20008;-57
2024/04/19 03:16:59;;;;;;;6.97;4.40;;;;;;;6.08;77.40;100008.63;5522948;25;19997;-57
2024/04/19 03:19:30;;;;;;;8.07;4.80;;;;;;;6.17;77.68;100013.47;5523214;25;20334;-56
2024/04/19 03:22:00;;;;;;;7.18;4.32;;;;;;;6.23;77.21;100015.84;5522837;25;20439;-57
2024/04/19 03:24:30;;;;;;;9.27;4.60;;;;;;;6.39;76.77;100012.50;5522721;25;20334;-56
2024/04/19 03:27:01;;;;;;;6.93;4.32;;;;;;;6.02;77.58;100007.09;5522783;25;20005;-57
2024/04/19 03:29:31;;;;;;;7.10;4.35;;;;;;;5.72;79.17;100022.53;5522939;25;19997;-55
2024/04/19 03:32:04;;;;;;;8.48;4.88;;;;;;;5.83;79.12;100013.25;5522575;25;20008;-55
2024/04/19 03:34:35;;;;;;;;;;;;;;;5.63;80.25;100012.34;5523038;25;20069;-57
2024/04/19 03:37:05;;;;;;;7.93;4.93;;;;;;;5.93;79.29;100015.44;5522712;25;20284;-57
2024/04/19 03:39:35;;;;;;;9.15;5.03;;;;;;;5.75;79.50;100016.22;5522527;25;20021;-58
2024/04/19 03:42:10;;;;;;;7.78;4.88;;;;;;;5.45;80.75;100014.00;5521932;25;20476;-58
2024/04/19 03:47:30;;;;;;;10.52;4.80;;;;;;;5.60;81.18;100015.13;5522527;25;20004;-57
2024/04/19 03:50:01;;;;;;;8.23;5.28;;;;;;;5.66;80.60;100021.91;5522809;25;19997;-57
2024/04/19 03:52:31;;;;;;;8.70;5.07;;;;;;;5.65;81.11;100020.22;5522420;25;20004;-57
2024/04/19 03:55:02;;;;;;;8.48;5.20;;;;;;;5.53;81.56;100024.25;5522408;25;20054;-55
2024/04/19 03:57:32;;;;;;;9.80;4.90;;;;;;;5.91;80.08;100021.75;5522718;25;19993;-56
2024/04/19 04:00:02;;;;;;;9.20;5.13;;;;;;;6.02;79.71;100024.75;5523235;25;20015;-58
2024/04/19 04:02:36;;;;;;;9.45;4.90;;;;;;;5.78;79.86;100028.47;5523010;25;20021;-56
2024/04/19 04:05:06;;;;;;;9.50;5.15;;;;;;;5.85;79.93;100038.72;5522785;25;20069;-57
2024/04/19 04:07:37;;;;;;;9.32;4.97;;;;;;;6.07;79.48;100032.47;5522095;25;20002;-58
2024/04/19 04:10:08;;;;;;;10.52;4.75;;;;;;;6.02;79.21;100032.72;5521964;25;20002;-57
2024/04/19 04:12:38;;;;;;;7.80;5.20;;;;;;;6.13;78.21;100035.72;5521852;25;20371;-58
2024/04/19 04:15:09;;;;;;;8.50;4.72;;;;;;;5.94;79.33;100045.41;5521806;25;19993;-57
2024/04/19 04:17:41;;;;;;;7.70;4.82;;;;;;;6.07;78.50;100038.63;5521642;25;20008;-57
2024/04/19 04:20:11;;;;;;;6.60;4.57;;;;;;;6.16;78.29;100042.66;5522266;25;20005;-54
2024/04/19 04:22:42;;;;;;;9.00;5.40;;;;;;;6.05;78.86;100050.25;5522144;25;20433;-56
2024/04/19 04:25:12;;;;;;;7.25;4.95;;;;;;;6.14;77.93;100042.75;5521944;25;20334;-56
2024/04/19 04:27:42;;;;;;;8.57;4.78;;;;;;;6.19;77.51;100053.16;5521997;25;20009;-56
2024/04/19 04:30:13;;;;;;;7.22;4.88;;;;;;;5.96;78.28;100056.81;5522046;25;19997;-58
2024/04/19 04:32:46;;;;;;;8.18;5.03;;;;;;;5.98;78.78;100068.16;5521769;25;19994;-57
2024/04/19 04:35:16;;;;;;;8.35;4.75;;;;;;;5.71;80.38;100078.16;5522038;25;20066;-57
2024/04/19 04:37:46;;;;;;;8.07;4.95;;;;;;;5.81;79.61;100073.34;5521923;25;19997;-56
2024/04/19 04:40:17;;;;;;;8.07;4.97;;;;;;;5.95;79.82;100078.91;5521815;25;20005;-55
2024/04/19 04:42:46;;;;;;;8.48;4.90;;;;;;;5.75;80.03;100072.66;5521403;25;20005;-58
2024/04/19 04:45:17;;;;;;;11.88;5.70;;;;;;;5.93;79.41;100072.81;5521375;25;20006;-56
2024/04/19 04:47:50;;;;;;;8.25;5.13;;;;;;;6.26;78.37;100076.59;5521576;25;20001;-58
2024/04/19 04:50:22;;;;;;;;;;;;;;;6.02;78.41;100072.44;5521884;25;20004;-57
2024/04/19 04:52:53;;;;;;;7.68;4.90;;;;;;;6.15;78.58;100078.03;5521493;26;19930;-57
2024/04/19 04:55:23;;;;;;;9.02;5.35;;;;;;;6.20;77.93;100081.34;5524865;25;20005;-56
2024/04/19 04:57:54;;;;;;;7.45;4.70;;;;;;;6.12;78.05;100080.81;5525283;25;19997;-56
2024/04/19 05:00:28;;;;;;;9.02;4.85;;;;;;;6.53;76.86;100079.78;5525445;25;20026;-57
2024/04/19 05:03:05;;;;;;;8.30;5.25;;;;;;;6.31;77.19;100071.97;5524701;25;20012;-55
2024/04/19 05:05:36;;;;;;;9.77;4.75;;;;;;;6.03;76.95;100075.00;5524477;25;20001;-54
2024/04/19 05:08:07;;;;;;;10.18;5.20;;;;;;;6.37;76.92;100072.59;5524248;25;19998;-57
2024/04/19 05:10:37;;;;;;;7.50;4.72;;;;;;;6.92;73.99;100081.50;5524185;25;19993;-57
2024/04/19 05:13:07;;;;;;;8.63;5.35;;;;;;;7.16;73.32;100082.97;5526260;25;20004;-58
2024/04/19 05:15:37;;;;;;;9.45;5.18;;;;;;;7.32;71.92;100080.41;5527091;25;20068;-56
2024/04/19 05:18:10;;;;;;;6.50;4.47;;;;;;;7.36;71.69;100084.66;5526961;25;20052;-56
2024/04/19 05:20:41;;;;;;;10.35;5.22;;;;;;;7.83;70.20;100081.41;5526799;25;19993;-57
2024/04/19 05:23:11;;;;;;;7.07;4.68;;;;;;;8.01;69.00;100071.63;5525621;25;20062;-58
2024/04/19 05:25:41;;;;;;;8.75;4.97;;;;;;;8.01;68.20;100077.78;5526455;25;20035;-58
2024/04/19 05:28:11;;;;;;;8.55;4.80;;;;;;;7.97;68.07;100072.69;5525337;25;19997;-58
2024/04/19 05:30:42;;;;;;;6.93;4.72;;;;;;;8.00;67.42;100076.03;5524543;25;20084;-59
2024/04/19 05:33:16;;;;;;;7.45;4.45;;;;;;;8.07;67.57;100079.25;5524648;25;20008;-58
2024/04/19 05:35:46;;;;;;;8.90;4.47;;;;;;;8.17;66.18;100085.78;5524767;25;20001;-58
2024/04/19 05:38:16;;;;;;;7.65;4.70;;;;;;;8.10;65.39;100084.38;5525022;25;20063;-57
2024/04/19 05:40:46;;;;;;;8.35;4.55;;;;;;;8.17;65.84;100085.78;5524595;25;20008;-56
2024/04/19 05:43:17;;;;;;;8.52;4.75;;;;;;;8.25;66.00;100091.56;5524733;25;20062;-56
2024/04/19 05:45:47;;;;;;;13.00;6.72;;;;;;;8.02;66.98;100092.78;5524492;25;19998;-58
2024/04/19 05:48:20;;;;;;;8.57;4.68;;;;;;;7.81;66.36;100099.19;5524526;25;20076;-57
2024/04/19 05:50:51;;;;;;;8.63;5.18;;;;;;;8.26;65.54;100100.41;5525057;25;20060;-55
2024/04/19 05:53:22;;;;;;;9.50;4.82;;;;;;;8.71;64.00;100096.25;5525206;25;20005;-56
2024/04/19 05:55:52;;;;;;;10.45;5.93;;;;;;;8.62;63.47;100091.41;5525184;25;20010;-57
2024/04/19 05:58:24;;;;;;;11.63;5.30;;;;;;;8.85;62.86;100096.31;5525061;25;20300;-61
2024/04/19 06:00:54;;;;;;;6.40;4.13;;;;;;;8.62;62.10;100094.09;5524737;25;20001;-60
2024/04/19 06:03:27;;;;;;;8.40;3.88;;;;;;;9.01;61.30;100096.34;5526990;25;19994;-57
2024/04/19 06:05:57;;;;;;;;;;;;;;;8.93;60.06;100099.41;5528508;25;20359;-53
2024/04/19 06:08:28;;;;;;;7.03;3.95;;;;;;;8.90;59.85;100099.59;5524916;25;19923;-58
2024/04/19 06:10:58;;;;;;;6.50;3.92;;;;;;;9.26;60.42;100103.78;5524495;25;19993;-57
2024/04/19 06:13:29;;;;;;;5.85;3.63;;;;;;;9.13;59.34;100099.16;5524836;25;20020;-57
2024/04/19 06:15:59;;;;;;;7.25;3.50;;;;;;;9.55;58.80;100099.44;5524615;25;20001;-56
2024/04/19 06:18:35;;;;;;;7.25;4.25;;;;;;;9.62;58.52;100095.47;5500081;25;20002;-56
2024/04/19 06:21:06;;;;;;;7.43;3.70;;;;;;;9.36;58.61;100091.66;5487859;26;20006;-56
2024/04/19 06:23:36;;;;;;;6.72;3.40;;;;;;;9.12;57.85;100097.44;5487416;26;19994;-55
2024/04/19 06:26:04;;;;;;;8.02;4.00;;;;;;;9.40;57.86;100095.88;5487578;26;20457;-57
2024/04/19 06:28:35;;;;;;;6.82;3.55;;;;;;;9.93;56.92;100089.16;5494792;26;20012;-55
2024/04/19 06:31:10;;;;;;;5.80;3.88;;;;;;;9.83;56.19;100088.00;5487377;26;20009;-58
2024/04/19 06:33:43;;;;;;;5.82;3.53;;;;;;;10.06;56.10;100084.84;5486864;26;20017;-57
2024/04/19 06:36:14;;;;;;;5.65;3.15;;;;;;;10.14;55.07;100079.91;5487017;26;20524;-56
2024/04/19 06:38:44;;;;;;;5.55;3.33;;;;;;;10.23;54.96;100079.38;5487428;26;20082;-55
2024/04/19 06:41:14;;;;;;;6.10;3.25;;;;;;;9.87;54.00;100076.25;5494609;26;20661;-57
2024/04/19 06:43:45;;;;;;;6.50;3.38;;;;;;;10.25;53.67;100076.59;5497723;25;20464;-58
2024/04/19 06:46:16;;;;;;;5.75;3.17;;;;;;;10.43;54.29;100080.81;5486627;26;19998;-58
2024/04/19 06:48:49;;;;;;;7.22;3.20;;;;;;;10.72;53.55;100083.47;5487494;26;20030;-59
2024/04/19 06:51:20;;;;;;;;;;;;;;;10.57;53.23;100078.13;5487572;26;19994;-58
2024/04/19 06:53:50;;;;;;;5.85;3.08;;;;;;;10.83;52.60;100081.81;5486136;26;19924;-60
2024/04/19 06:56:22;;;;;;;5.43;2.75;;;;;;;10.73;51.51;100074.50;5486459;26;20005;-58
2024/04/19 06:58:53;;;;;;;5.38;2.88;;;;;;;10.89;51.74;100076.06;5486818;26;20025;-59
2024/04/19 07:01:26;;;;;;;7.90;3.22;;;;;;;11.23;50.93;100084.56;5486665;26;19998;-59
2024/04/19 07:03:58;;;;;;;7.20;3.00;;;;;;;11.35;49.15;100089.09;5486582;26;20004;-59
2024/04/19 07:06:29;;;;;;;5.10;3.03;;;;;;;10.21;50.38;100085.69;5486669;26;20009;-57
2024/04/19 07:09:13;;;;;;;4.32;2.50;;;;;;;10.16;50.92;100085.13;5486486;26;20392;-56
2024/04/19 07:11:44;;;;;;;4.22;2.20;;;;;;;10.56;49.68;100080.88;5486335;26;20002;-58
2024/04/19 07:14:14;;;;;;;6.18;2.53;;;;;;;10.41;50.00;100084.50;5487461;26;19994;-60
2024/04/19 07:16:44;;;;;;;5.85;2.50;;;;;;;10.22;49.98;100087.44;5486827;26;20013;-58
2024/04/19 07:19:18;;;;;;;4.13;2.40;;;;;;;10.62;48.82;100083.19;5487335;26;20065;-58
2024/04/19 07:21:49;;;;;;;4.78;2.20;;;;;;;10.86;48.50;100083.41;5488322;26;19998;-60
2024/04/19 07:24:23;;;;;;;7.05;2.60;;;;;;;10.95;49.27;100073.97;5488723;26;20291;-61
2024/04/19 07:26:54;;;;;;;5.75;2.53;;;;;;;11.23;48.87;100073.03;5488172;26;20047;-60
2024/04/19 07:29:24;;;;;;;5.78;2.50;;;;;;;11.40;48.14;100076.31;5488275;26;20004;-60
2024/04/19 07:31:55;;;;;;;4.80;2.13;;;;;;;11.07;47.67;100083.84;5488228;26;20309;-59
2024/04/19 07:34:28;;;;;;;4.90;2.30;;;;;;;11.23;47.68;100079.22;5488201;26;20005;-61
2024/04/19 07:36:59;;;;;;;4.22;1.95;;;;;;;10.61;47.05;100070.78;5487282;26;20313;-58
2024/04/19 07:39:27;;;;;;;5.32;2.15;;;;;;;11.15;46.65;100065.53;5487468;26;20001;-60
2024/04/19 07:41:57;;;;;;;4.88;2.00;;;;;;;11.00;45.23;100079.84;5486821;26;20005;-59
2024/04/19 07:44:30;;;;;;;4.82;1.98;;;;;;;11.12;45.04;100071.06;5487652;26;20011;-59
2024/04/19 07:47:02;;;;;;;6.80;2.30;;;;;;;11.55;45.08;100068.22;5485774;26;20006;-59
2024/04/19 07:49:42;;;;;;;3.00;1.60;;;;;;;11.45;43.57;100059.97;5488965;26;20017;-60
2024/04/19 07:52:13;;;;;;;3.22;1.40;;;;;;;10.89;43.78;100070.72;5488048;26;20328;-60
2024/04/19 07:54:45;;;;;;;3.83;1.60;;;;;;;10.80;43.37;100060.63;5487384;26;20426;-59
2024/04/19 07:57:16;;;;;;;3.73;1.43;;;;;;;10.65;44.34;100072.31;5486884;26;19998;-59
2024/04/19 07:59:46;;;;;;;4.15;1.55;;;;;;;11.02;44.09;100070.81;5488460;26;20005;-59
2024/04/19 08:02:20;;;;;;;3.35;1.45;;;;;;;11.22;43.07;100060.66;5488472;26;19994;-60
2024/04/19 08:04:55;;;;;;;4.75;2.03;;;;;;;11.51;44.00;100056.03;5487892;26;20022;-61
2024/04/19 08:07:26;;;;;;;2.60;1.30;;;;;;;11.64;42.06;100055.09;5487208;26;20006;-60
2024/04/19 08:10:08;;;;;;;3.85;1.70;;;;;;;11.52;41.67;100063.94;5485595;26;19994;-58
2024/04/19 08:12:39;;;;;;;4.25;1.42;;;;;;;11.84;42.05;100044.91;5485786;26;19994;-58
2024/04/19 08:15:10;;;;;;;4.30;1.48;;;;;;;11.97;41.49;100048.47;5485253;26;20002;-58
2024/04/19 08:17:41;;;;;;;2.00;0.90;;;;;;;11.68;41.61;100053.09;5486757;26;20006;-57
2024/04/19 08:20:14;;;;;;;2.47;1.23;;;;;;;11.65;41.97;100047.94;5484155;26;20392;-58
2024/04/19 08:22:45;;;;;;;3.60;1.50;;;;;;;12.21;41.02;100045.88;5488660;26;20021;-59
2024/04/19 08:25:15;;;;;;;2.25;1.27;;;;;;;12.50;41.06;100052.69;5485691;26;20460;-56
2024/04/19 08:27:45;;;;;;;2.80;1.20;;;;;;;12.69;41.51;100036.19;5485403;26;19998;-59
2024/04/19 08:30:16;;;;;;;3.22;1.20;;;;;;;12.20;39.18;100038.81;5489498;26;20008;-58
2024/04/19 08:32:47;;;;;;;1.35;0.80;;;;;;;12.25;38.59;100048.22;5489249;26;20070;-59
2024/04/19 08:35:20;;;;;;;2.25;1.10;;;;;;;12.00;38.62;100040.22;5488976;26;19993;-60
2024/04/19 08:37:51;;;;;;;1.83;0.85;;;;;;;11.99;38.01;100038.50;5489094;26;20005;-59
2024/04/19 08:40:22;;;;;;;2.75;0.95;;;;;;;12.01;38.20;100045.47;5488534;26;20026;-60
2024/04/19 08:42:53;;;;;;;1.52;0.88;;;;;;;12.41;38.89;100045.34;5488466;26;20034;-58
2024/04/19 08:45:24;;;;;;;4.18;1.25;;;;;;;12.83;39.67;100043.19;5488421;26;20149;-57
2024/04/19 08:47:56;;;;;;;2.38;1.20;;;;;;;12.89;40.55;100040.94;5487598;26;20458;-57
2024/04/19 08:50:30;;;;;;;4.43;1.52;;;;;;;13.03;40.63;100034.59;5488047;26;19998;-56
2024/04/19 08:53:02;;;;;;;3.80;1.50;;;;;;;12.91;40.78;100040.81;5488530;26;19994;-59
2024/04/19 08:55:46;;;;;;;4.47;1.48;;;;;;;12.96;40.24;100027.97;5487953;26;20030;-58
2024/04/19 08:58:16;;;;;;;2.15;1.17;;;;;;;13.03;40.53;100020.34;5487422;26;20334;-59
2024/04/19 09:00:48;;;;;;;3.58;1.60;;;;;;;12.87;40.86;100025.97;5487649;26;19994;-58
2024/04/19 09:03:18;;;;;;;2.70;1.60;;;;;;;12.82;40.68;100025.44;5487925;26;20002;-57
2024/04/19 09:05:52;;;;;;;2.85;1.30;;;;;;;12.39;41.60;100023.19;5487554;26;20531;-59
2024/04/19 09:08:23;;;;;;;4.22;1.65;;;;;;;12.73;42.61;100023.44;5486956;26;19998;-57
2024/04/19 09:10:54;;;;;;;3.40;1.58;;;;;;;12.90;42.61;100009.66;5487173;26;19994;-59
2024/04/19 09:13:24;;;;;;;3.95;1.70;;;;;;;13.16;41.55;100013.97;5487083;26;20438;-57
2024/04/19 09:15:55;;;;;;;4.18;1.58;;;;;;;12.97;41.53;100012.75;5487281;26;20026;-59
2024/04/19 09:18:28;;;;;;;3.25;1.65;;;;;;;12.78;41.42;100010.56;5486897;26;19994;-58
2024/04/19 09:21:00;;;;;;;4.78;1.80;;;;;;;12.47;41.44;100015.47;5487447;26;20354;-61
2024/04/19 09:23:30;;;;;;;2.83;1.30;;;;;;;12.03;37.50;100015.94;5487327;26;20117;-54
2024/04/19 09:26:01;;;;;;;2.08;1.08;;;;;;;11.81;37.47;100027.28;5487460;26;20030;-59
2024/04/19 09:28:32;;;;;;;3.45;1.05;;;;;;;11.72;38.00;100012.69;5489151;26;20002;-58
2024/04/19 09:31:02;;;;;;;1.70;1.10;;;;;;;11.71;38.26;100004.78;5491517;26;20013;-60
2024/04/19 09:33:32;;;;;;;2.40;1.23;;;;;;;11.68;39.26;100013.03;5488597;26;19994;-60
2024/04/19 09:36:06;;;;;;;2.90;1.50;;;;;;;11.61;40.57;100001.03;5487504;26;20013;-58
2024/04/19 09:38:39;;;;;;;4.45;1.17;;;;;;;12.07;39.95;99993.41;5486549;26;20371;-58
2024/04/19 09:41:16;;;;;;;4.97;2.03;;;;;;;12.25;39.28;99994.75;5486872;26;19994;-59
2024/04/19 09:43:51;;;;;;;2.22;1.35;;;;;;;12.07;39.75;99996.06;5487116;26;20013;-59
2024/04/19 09:46:26;;;;;;;2.75;1.30;;;;;;;12.44;39.51;99990.75;5486921;26;20008;-58
2024/04/19 09:49:00;;;;;;;2.53;1.38;;;;;;;12.92;38.39;99982.78;5486613;26;20006;-59
2024/04/19 09:51:38;;;;;;;3.35;1.63;;;;;;;12.33;38.60;99984.34;5486942;26;20066;-60
2024/04/19 09:54:11;;;;;;;1.98;1.30;;;;;;;12.30;39.26;99979.22;5486591;26;20000;-59
2024/04/19 09:56:52;;;;;;;3.80;1.60;;;;;;;12.15;39.80;99976.78;5486520;26;20006;-55
2024/04/19 09:59:24;;;;;;;3.13;1.48;;;;;;;12.47;39.71;99970.00;5486671;26;20412;-58
2024/04/19 10:01:55;;;;;;;3.33;1.70;;;;;;;12.56;39.32;99966.66;5486824;26;20010;-57
2024/04/19 10:04:28;;;;;;;3.50;1.60;;;;;;;12.65;39.22;99972.31;5486672;26;19998;-56
2024/04/19 10:07:04;;;;;;;4.78;1.67;;;;;;;12.94;39.05;99959.47;5487081;26;20047;-58
2024/04/19 10:09:36;;;;;;;2.88;1.50;;;;;;;12.98;39.28;99968.97;5486413;26;20173;-57
2024/04/19 10:12:08;;;;;;;3.10;1.60;;;;;;;12.43;39.15;99964.97;5486631;26;20005;-58
2024/04/19 10:14:38;;;;;;;2.30;1.42;;;;;;;12.65;39.35;99959.78;5504481;26;20001;-58
2024/04/19 10:17:09;;;;;;;2.72;1.60;;;;;;;13.17;38.85;99951.38;5524232;25;20050;-57
2024/04/19 10:19:42;;;;;;;2.58;1.45;;;;;;;13.28;38.55;99957.78;5523893;25;20397;-59
2024/04/19 10:22:26;;;;;;;2.45;1.40;;;;;;;13.77;39.23;99945.97;5524491;25;19997;-57
2024/04/19 10:25:00;;;;;;;5.15;1.60;;;;;;;13.85;39.29;99947.06;5524086;25;19993;-58
2024/04/19 10:27:31;;;;;;;3.90;1.60;;;;;;;14.11;39.08;99941.50;5488018;25;20051;-58
2024/04/19 10:30:02;;;;;;;3.00;1.60;;;;;;;14.33;38.26;99941.47;5488405;26;20002;-59
2024/04/19 10:32:33;;;;;;;3.60;1.60;;;;;;;14.15;37.12;99937.56;5488319;26;20340;-60
2024/04/19 10:35:04;;;;;;;4.28;1.50;;;;;;;14.20;37.58;99933.56;5488543;26;20005;-61
2024/04/19 10:37:37;;;;;;;7.78;3.20;;;;;;;14.35;38.25;99933.28;5488730;26;19998;-60
2024/04/19 10:40:08;;;;;;;3.53;1.80;;;;;;;14.10;36.77;99923.69;5488417;26;20009;-60
2024/04/19 10:42:38;;;;;;;3.83;1.70;;;;;;;14.15;36.33;99916.13;5488495;26;20824;-58
2024/04/19 10:45:14;;;;;;;5.13;1.83;;;;;;;13.98;36.84;99922.81;5488426;26;20009;-59
2024/04/19 10:47:45;;;;;;;4.45;1.67;;;;;;;13.92;36.48;99924.19;5488476;26;19998;-57
2024/04/19 10:50:16;;;;;;;4.50;2.20;;;;;;;13.88;36.18;99917.34;5487269;26;20005;-59
2024/04/19 10:52:49;;;;;;;4.68;1.52;;;;;;;13.97;36.66;99907.72;5487266;26;20525;-60
2024/04/19 10:55:20;;;;;;;3.05;1.58;;;;;;;14.43;37.40;99914.75;5487950;26;20492;-60
2024/04/19 10:57:50;;;;;;;3.40;1.67;;;;;;;14.19;36.38;99913.09;5488505;26;20010;-61
2024/04/19 11:00:21;;;;;;;3.80;1.67;;;;;;;14.55;36.26;99911.09;5487890;26;19998;-60
2024/04/19 11:02:51;;;;;;;2.83;1.60;;;;;;;14.70;36.64;99899.09;5487295;26;19998;-59
2024/04/19 11:05:36;;;;;;;2.28;1.40;;;;;;;14.81;36.94;99899.06;5487331;26;20009;-59
2024/04/19 11:08:10;;;;;;;3.53;1.70;;;;;;;15.04;36.50;99896.25;5486955;26;20066;-58
2024/04/19 11:10:40;;;;;;;3.50;1.40;;;;;;;15.02;35.10;99882.97;5486325;26;20930;-58
2024/04/19 11:13:11;;;;;;;2.78;1.27;;;;;;;15.06;35.91;99887.13;5486837;26;20002;-56
2024/04/19 11:15:41;;;;;;;2.50;1.20;;;;;;;15.11;35.60;99884.03;5486473;26;19998;-55
2024/04/19 11:18:27;;;;;;;3.50;1.60;;;;;;;15.14;35.80;99876.56;5487206;26;19998;-57
2024/04/19 11:21:01;;;;;;;3.45;1.60;;;;;;;15.28;35.68;99875.38;5486863;26;19998;-58
2024/04/19 11:23:44;;;;;;;2.97;1.60;;;;;;;15.27;35.63;99873.69;5486378;25;20010;-58
2024/04/19 11:26:19;;;;;;;3.85;1.58;;;;;;;15.38;34.39;99867.38;5487066;26;20002;-60
2024/04/19 11:28:53;;;;;;;3.42;1.45;;;;;;;15.40;34.59;99868.09;5486611;26;20002;-58
2024/04/19 11:31:26;;;;;;;2.88;1.45;;;;;;;15.15;32.38;99869.34;5486709;26;20465;-56
2024/04/19 11:34:08;;;;;;;2.35;1.27;;;;;;;15.13;31.73;99868.63;5486694;26;20010;-56
2024/04/19 11:36:38;;;;;;;2.28;1.42;;;;;;;15.35;32.54;99863.13;5486551;26;20034;-59
2024/04/19 11:39:11;;;;;;;4.25;1.88;;;;;;;14.91;31.36;99863.38;5486687;26;20342;-59
2024/04/19 11:41:39;;;;;;;2.28;1.40;;;;;;;14.45;31.68;99861.81;5485974;26;19998;-58
2024/04/19 11:44:10;;;;;;;2.35;1.20;;;;;;;14.53;32.20;99870.09;5486171;26;20030;-56
2024/04/19 11:46:45;;;;;;;3.13;1.38;;;;;;;14.83;33.02;99855.97;5485804;26;20034;-58
2024/04/19 11:49:16;;;;;;;2.78;1.38;;;;;;;14.76;31.73;99863.66;5485991;26;20459;-60
2024/04/19 11:51:48;;;;;;;4.93;1.83;;;;;;;14.61;32.58;99851.53;5485647;26;20059;-56
2024/04/19 11:54:24;;;;;;;2.70;1.42;;;;;;;14.75;33.65;99845.84;5485973;26;20239;-59
2024/04/19 11:56:54;;;;;;;3.80;1.40;;;;;;;14.63;32.55;99844.22;5486261;26;19998;-58
2024/04/19 11:59:25;;;;;;;5.43;2.92;;;;;;;14.53;31.93;99840.59;5485378;26;20013;-59